sensor_id;sensor_type;location;lat;lon;timestamp;P1;durP1;ratioP1;P2;durP2;ratioP2
70322;SDS011;57735;56.264;43.898;2022-07-17T00:01:11;33.58;;;9.75;;
70322;SDS011;57735;56.264;43.898;2022-07-17T00:03:42;29.73;;;10.10;;
70322;SDS011;57735;56.264;43.898;2022-07-17T00:06:15;36.38;;;9.88;;
70322;SDS011;57735;56.264;43.898;2022-07-17T00:08:48;31.60;;;9.77;;
70322;SDS011;57735;56.264;43.898;2022-07-17T00:11:21;35.72;;;11.07;;
70322;SDS011;57735;56.264;43.898;2022-07-17T00:13:52;26.48;;;10.10;;
70322;SDS011;57735;56.264;43.898;2022-07-17T00:16:23;28.63;;;10.75;;
70322;SDS011;57735;56.264;43.898;2022-07-17T00:18:56;29.67;;;9.93;;
70322;SDS011;57735;56.264;43.898;2022-07-17T00:21:27;26.45;;;10.90;;
70322;SDS011;57735;56.264;43.898;2022-07-17T00:23:58;22.65;;;9.82;;
70322;SDS011;57735;56.264;43.898;2022-07-17T00:26:29;29.95;;;9.82;;
70322;SDS011;57735;56.264;43.898;2022-07-17T00:29:02;28.05;;;9.30;;
70322;SDS011;57735;56.264;43.898;2022-07-17T00:31:33;31.85;;;11.07;;
70322;SDS011;57735;56.264;43.898;2022-07-17T00:34:04;27.65;;;10.10;;
70322;SDS011;57735;56.264;43.898;2022-07-17T00:36:35;26.10;;;10.38;;
70322;SDS011;57735;56.264;43.898;2022-07-17T00:39:06;24.10;;;9.40;;
70322;SDS011;57735;56.264;43.898;2022-07-17T00:41:37;31.45;;;10.20;;
70322;SDS011;57735;56.264;43.898;2022-07-17T00:44:09;28.52;;;10.02;;
70322;SDS011;57735;56.264;43.898;2022-07-17T00:46:42;26.40;;;9.93;;
70322;SDS011;57735;56.264;43.898;2022-07-17T00:49:13;27.00;;;10.50;;
70322;SDS011;57735;56.264;43.898;2022-07-17T00:51:49;30.13;;;11.10;;
70322;SDS011;57735;56.264;43.898;2022-07-17T00:54:24;25.38;;;11.82;;
70322;SDS011;57735;56.264;43.898;2022-07-17T00:56:58;20.98;;;11.55;;
70322;SDS011;57735;56.264;43.898;2022-07-17T00:59:30;26.13;;;10.88;;
70322;SDS011;57735;56.264;43.898;2022-07-17T01:02:06;30.13;;;12.25;;
70322;SDS011;57735;56.264;43.898;2022-07-17T01:04:39;23.63;;;11.55;;
70322;SDS011;57735;56.264;43.898;2022-07-17T01:07:13;29.33;;;12.23;;
70322;SDS011;57735;56.264;43.898;2022-07-17T01:09:44;26.05;;;12.27;;
70322;SDS011;57735;56.264;43.898;2022-07-17T01:12:15;24.23;;;11.10;;
70322;SDS011;57735;56.264;43.898;2022-07-17T01:14:46;23.52;;;11.38;;
70322;SDS011;57735;56.264;43.898;2022-07-17T01:17:18;22.52;;;10.85;;
70322;SDS011;57735;56.264;43.898;2022-07-17T01:19:49;25.42;;;9.60;;
70322;SDS011;57735;56.264;43.898;2022-07-17T01:22:23;16.52;;;8.70;;
70322;SDS011;57735;56.264;43.898;2022-07-17T01:24:57;15.48;;;9.15;;
70322;SDS011;57735;56.264;43.898;2022-07-17T01:27:28;17.15;;;8.18;;
70322;SDS011;57735;56.264;43.898;2022-07-17T01:30:01;15.90;;;8.80;;
70322;SDS011;57735;56.264;43.898;2022-07-17T01:32:34;19.52;;;8.73;;
70322;SDS011;57735;56.264;43.898;2022-07-17T01:35:07;21.00;;;9.80;;
70322;SDS011;57735;56.264;43.898;2022-07-17T01:37:39;16.90;;;9.25;;
70322;SDS011;57735;56.264;43.898;2022-07-17T01:40:12;20.83;;;9.07;;
70322;SDS011;57735;56.264;43.898;2022-07-17T01:42:45;15.25;;;8.25;;
70322;SDS011;57735;56.264;43.898;2022-07-17T01:45:18;14.50;;;7.38;;
70322;SDS011;57735;56.264;43.898;2022-07-17T01:47:56;15.88;;;7.72;;
70322;SDS011;57735;56.264;43.898;2022-07-17T01:50:29;12.75;;;7.57;;
70322;SDS011;57735;56.264;43.898;2022-07-17T01:53:00;13.07;;;7.78;;
70322;SDS011;57735;56.264;43.898;2022-07-17T01:55:31;13.23;;;7.38;;
70322;SDS011;57735;56.264;43.898;2022-07-17T01:58:02;13.07;;;6.93;;
70322;SDS011;57735;56.264;43.898;2022-07-17T02:00:40;16.48;;;7.60;;
70322;SDS011;57735;56.264;43.898;2022-07-17T02:03:12;15.00;;;7.25;;
70322;SDS011;57735;56.264;43.898;2022-07-17T02:05:43;10.82;;;6.93;;
70322;SDS011;57735;56.264;43.898;2022-07-17T02:08:16;16.00;;;7.15;;
70322;SDS011;57735;56.264;43.898;2022-07-17T02:10:50;12.13;;;7.13;;
70322;SDS011;57735;56.264;43.898;2022-07-17T02:13:20;15.80;;;7.03;;
70322;SDS011;57735;56.264;43.898;2022-07-17T02:15:51;15.75;;;8.25;;
70322;SDS011;57735;56.264;43.898;2022-07-17T02:18:22;15.45;;;7.43;;
70322;SDS011;57735;56.264;43.898;2022-07-17T02:20:56;14.93;;;6.80;;
70322;SDS011;57735;56.264;43.898;2022-07-17T02:23:26;14.40;;;7.05;;
70322;SDS011;57735;56.264;43.898;2022-07-17T02:25:58;12.00;;;6.30;;
70322;SDS011;57735;56.264;43.898;2022-07-17T02:28:29;13.07;;;6.72;;
70322;SDS011;57735;56.264;43.898;2022-07-17T02:31:00;13.80;;;6.55;;
70322;SDS011;57735;56.264;43.898;2022-07-17T02:33:33;17.25;;;8.13;;
70322;SDS011;57735;56.264;43.898;2022-07-17T02:36:03;18.30;;;8.73;;
70322;SDS011;57735;56.264;43.898;2022-07-17T02:38:35;14.27;;;6.60;;
70322;SDS011;57735;56.264;43.898;2022-07-17T02:41:08;13.65;;;6.22;;
70322;SDS011;57735;56.264;43.898;2022-07-17T02:43:39;13.43;;;6.00;;
70322;SDS011;57735;56.264;43.898;2022-07-17T02:46:10;14.80;;;7.22;;
70322;SDS011;57735;56.264;43.898;2022-07-17T02:48:43;17.47;;;6.80;;
70322;SDS011;57735;56.264;43.898;2022-07-17T02:51:14;13.45;;;6.90;;
70322;SDS011;57735;56.264;43.898;2022-07-17T02:53:45;19.83;;;6.38;;
70322;SDS011;57735;56.264;43.898;2022-07-17T02:56:18;14.63;;;6.60;;
70322;SDS011;57735;56.264;43.898;2022-07-17T02:58:49;15.20;;;7.22;;
70322;SDS011;57735;56.264;43.898;2022-07-17T03:01:20;14.95;;;7.10;;
70322;SDS011;57735;56.264;43.898;2022-07-17T03:03:51;20.10;;;7.70;;
70322;SDS011;57735;56.264;43.898;2022-07-17T03:06:22;13.05;;;6.93;;
70322;SDS011;57735;56.264;43.898;2022-07-17T03:08:56;20.57;;;7.67;;
70322;SDS011;57735;56.264;43.898;2022-07-17T03:11:29;19.50;;;7.75;;
70322;SDS011;57735;56.264;43.898;2022-07-17T03:14:00;14.43;;;6.57;;
70322;SDS011;57735;56.264;43.898;2022-07-17T03:16:30;17.88;;;8.48;;
70322;SDS011;57735;56.264;43.898;2022-07-17T03:19:04;14.77;;;7.95;;
70322;SDS011;57735;56.264;43.898;2022-07-17T03:21:34;13.10;;;7.82;;
70322;SDS011;57735;56.264;43.898;2022-07-17T03:24:05;17.40;;;8.30;;
70322;SDS011;57735;56.264;43.898;2022-07-17T03:26:45;14.15;;;7.93;;
70322;SDS011;57735;56.264;43.898;2022-07-17T03:29:16;22.20;;;10.10;;
70322;SDS011;57735;56.264;43.898;2022-07-17T03:31:47;22.55;;;8.70;;
70322;SDS011;57735;56.264;43.898;2022-07-17T03:34:21;21.53;;;10.03;;
70322;SDS011;57735;56.264;43.898;2022-07-17T03:36:51;23.88;;;9.23;;
70322;SDS011;57735;56.264;43.898;2022-07-17T03:39:22;18.02;;;8.75;;
70322;SDS011;57735;56.264;43.898;2022-07-17T03:41:53;16.38;;;9.18;;
70322;SDS011;57735;56.264;43.898;2022-07-17T03:44:24;18.30;;;8.30;;
70322;SDS011;57735;56.264;43.898;2022-07-17T03:46:57;18.58;;;8.57;;
70322;SDS011;57735;56.264;43.898;2022-07-17T03:49:31;19.58;;;8.52;;
70322;SDS011;57735;56.264;43.898;2022-07-17T03:52:04;19.35;;;9.40;;
70322;SDS011;57735;56.264;43.898;2022-07-17T03:54:35;21.63;;;9.52;;
70322;SDS011;57735;56.264;43.898;2022-07-17T03:57:08;18.42;;;10.75;;
70322;SDS011;57735;56.264;43.898;2022-07-17T03:59:39;26.50;;;11.55;;
70322;SDS011;57735;56.264;43.898;2022-07-17T04:02:10;24.75;;;12.25;;
70322;SDS011;57735;56.264;43.898;2022-07-17T04:04:41;24.35;;;12.20;;
70322;SDS011;57735;56.264;43.898;2022-07-17T04:07:12;29.35;;;12.05;;
70322;SDS011;57735;56.264;43.898;2022-07-17T04:09:58;28.63;;;12.95;;
70322;SDS011;57735;56.264;43.898;2022-07-17T04:12:33;26.25;;;12.77;;
70322;SDS011;57735;56.264;43.898;2022-07-17T04:15:05;27.25;;;12.60;;
70322;SDS011;57735;56.264;43.898;2022-07-17T04:17:42;25.40;;;12.55;;
70322;SDS011;57735;56.264;43.898;2022-07-17T04:20:15;27.98;;;12.73;;
70322;SDS011;57735;56.264;43.898;2022-07-17T04:22:48;23.33;;;11.50;;
70322;SDS011;57735;56.264;43.898;2022-07-17T04:25:18;27.35;;;11.20;;
70322;SDS011;57735;56.264;43.898;2022-07-17T04:27:52;26.23;;;11.63;;
70322;SDS011;57735;56.264;43.898;2022-07-17T04:30:22;27.30;;;10.32;;
70322;SDS011;57735;56.264;43.898;2022-07-17T04:32:53;27.05;;;10.48;;
70322;SDS011;57735;56.264;43.898;2022-07-17T04:35:27;20.63;;;9.18;;
70322;SDS011;57735;56.264;43.898;2022-07-17T04:37:58;19.67;;;7.80;;
70322;SDS011;57735;56.264;43.898;2022-07-17T04:40:28;10.80;;;6.47;;
70322;SDS011;57735;56.264;43.898;2022-07-17T04:42:59;22.63;;;7.75;;
70322;SDS011;57735;56.264;43.898;2022-07-17T04:45:35;13.88;;;5.88;;
70322;SDS011;57735;56.264;43.898;2022-07-17T04:48:05;12.32;;;5.70;;
70322;SDS011;57735;56.264;43.898;2022-07-17T04:50:39;12.13;;;5.65;;
70322;SDS011;57735;56.264;43.898;2022-07-17T04:53:10;13.55;;;5.82;;
70322;SDS011;57735;56.264;43.898;2022-07-17T04:55:45;15.00;;;6.50;;
70322;SDS011;57735;56.264;43.898;2022-07-17T04:58:16;16.23;;;6.28;;
70322;SDS011;57735;56.264;43.898;2022-07-17T05:00:56;15.38;;;6.03;;
70322;SDS011;57735;56.264;43.898;2022-07-17T05:03:26;11.63;;;6.20;;
70322;SDS011;57735;56.264;43.898;2022-07-17T05:05:57;12.57;;;5.88;;
70322;SDS011;57735;56.264;43.898;2022-07-17T05:08:28;9.98;;;4.50;;
70322;SDS011;57735;56.264;43.898;2022-07-17T05:10:59;9.40;;;4.40;;
70322;SDS011;57735;56.264;43.898;2022-07-17T05:13:30;8.52;;;3.33;;
70322;SDS011;57735;56.264;43.898;2022-07-17T05:16:11;8.75;;;3.58;;
70322;SDS011;57735;56.264;43.898;2022-07-17T05:18:42;8.45;;;3.55;;
70322;SDS011;57735;56.264;43.898;2022-07-17T05:21:13;8.85;;;3.80;;
70322;SDS011;57735;56.264;43.898;2022-07-17T05:23:47;9.43;;;3.42;;
70322;SDS011;57735;56.264;43.898;2022-07-17T05:26:17;5.97;;;2.72;;
70322;SDS011;57735;56.264;43.898;2022-07-17T05:28:48;7.22;;;3.00;;
70322;SDS011;57735;56.264;43.898;2022-07-17T05:31:19;8.27;;;2.80;;
70322;SDS011;57735;56.264;43.898;2022-07-17T05:33:50;7.13;;;2.83;;
70322;SDS011;57735;56.264;43.898;2022-07-17T05:36:21;8.70;;;3.20;;
70322;SDS011;57735;56.264;43.898;2022-07-17T05:38:52;5.93;;;3.40;;
70322;SDS011;57735;56.264;43.898;2022-07-17T05:41:25;10.40;;;3.10;;
70322;SDS011;57735;56.264;43.898;2022-07-17T05:43:58;12.55;;;3.40;;
70322;SDS011;57735;56.264;43.898;2022-07-17T05:46:29;13.55;;;3.45;;
70322;SDS011;57735;56.264;43.898;2022-07-17T05:49:00;7.13;;;3.40;;
70322;SDS011;57735;56.264;43.898;2022-07-17T05:51:31;13.75;;;3.15;;
70322;SDS011;57735;56.264;43.898;2022-07-17T05:54:02;8.32;;;3.05;;
70322;SDS011;57735;56.264;43.898;2022-07-17T05:56:33;6.60;;;3.00;;
70322;SDS011;57735;56.264;43.898;2022-07-17T05:59:06;9.82;;;3.00;;
70322;SDS011;57735;56.264;43.898;2022-07-17T06:01:37;7.25;;;3.38;;
70322;SDS011;57735;56.264;43.898;2022-07-17T06:04:08;5.22;;;2.67;;
70322;SDS011;57735;56.264;43.898;2022-07-17T06:06:38;14.40;;;3.55;;
70322;SDS011;57735;56.264;43.898;2022-07-17T06:09:12;7.47;;;3.17;;
70322;SDS011;57735;56.264;43.898;2022-07-17T06:11:43;4.93;;;2.90;;
70322;SDS011;57735;56.264;43.898;2022-07-17T06:14:16;7.50;;;2.95;;
70322;SDS011;57735;56.264;43.898;2022-07-17T06:16:49;6.80;;;3.10;;
70322;SDS011;57735;56.264;43.898;2022-07-17T06:19:23;12.23;;;3.45;;
70322;SDS011;57735;56.264;43.898;2022-07-17T06:21:54;4.60;;;2.70;;
70322;SDS011;57735;56.264;43.898;2022-07-17T06:24:25;7.20;;;3.20;;
70322;SDS011;57735;56.264;43.898;2022-07-17T06:26:56;6.88;;;3.50;;
70322;SDS011;57735;56.264;43.898;2022-07-17T06:29:27;11.05;;;3.33;;
70322;SDS011;57735;56.264;43.898;2022-07-17T06:31:59;6.75;;;3.10;;
70322;SDS011;57735;56.264;43.898;2022-07-17T06:34:30;7.80;;;3.38;;
70322;SDS011;57735;56.264;43.898;2022-07-17T06:37:01;11.98;;;3.47;;
70322;SDS011;57735;56.264;43.898;2022-07-17T06:39:32;6.70;;;3.47;;
70322;SDS011;57735;56.264;43.898;2022-07-17T06:42:03;8.52;;;3.15;;
70322;SDS011;57735;56.264;43.898;2022-07-17T06:44:34;5.22;;;2.90;;
70322;SDS011;57735;56.264;43.898;2022-07-17T06:47:05;9.95;;;3.58;;
70322;SDS011;57735;56.264;43.898;2022-07-17T06:49:35;7.63;;;2.85;;
70322;SDS011;57735;56.264;43.898;2022-07-17T06:52:06;8.70;;;3.13;;
70322;SDS011;57735;56.264;43.898;2022-07-17T06:54:37;6.68;;;2.78;;
70322;SDS011;57735;56.264;43.898;2022-07-17T06:57:11;4.60;;;2.90;;
70322;SDS011;57735;56.264;43.898;2022-07-17T06:59:42;6.30;;;3.35;;
70322;SDS011;57735;56.264;43.898;2022-07-17T07:02:15;7.15;;;3.17;;
70322;SDS011;57735;56.264;43.898;2022-07-17T07:04:51;7.68;;;2.67;;
70322;SDS011;57735;56.264;43.898;2022-07-17T07:07:22;5.75;;;3.25;;
70322;SDS011;57735;56.264;43.898;2022-07-17T07:09:53;4.13;;;2.60;;
70322;SDS011;57735;56.264;43.898;2022-07-17T07:12:24;11.70;;;3.30;;
70322;SDS011;57735;56.264;43.898;2022-07-17T07:14:57;7.55;;;3.08;;
70322;SDS011;57735;56.264;43.898;2022-07-17T07:17:28;7.03;;;2.77;;
70322;SDS011;57735;56.264;43.898;2022-07-17T07:20:05;6.57;;;2.80;;
70322;SDS011;57735;56.264;43.898;2022-07-17T07:22:38;7.57;;;2.50;;
70322;SDS011;57735;56.264;43.898;2022-07-17T07:25:09;9.07;;;2.70;;
70322;SDS011;57735;56.264;43.898;2022-07-17T07:27:40;5.47;;;2.22;;
70322;SDS011;57735;56.264;43.898;2022-07-17T07:30:14;4.72;;;2.92;;
70322;SDS011;57735;56.264;43.898;2022-07-17T07:32:45;19.40;;;3.40;;
70322;SDS011;57735;56.264;43.898;2022-07-17T07:35:16;4.50;;;2.45;;
70322;SDS011;57735;56.264;43.898;2022-07-17T07:37:50;3.40;;;2.42;;
70322;SDS011;57735;56.264;43.898;2022-07-17T07:40:20;6.90;;;2.20;;
70322;SDS011;57735;56.264;43.898;2022-07-17T07:42:54;7.75;;;2.10;;
70322;SDS011;57735;56.264;43.898;2022-07-17T07:45:27;6.97;;;2.85;;
70322;SDS011;57735;56.264;43.898;2022-07-17T07:47:58;7.15;;;2.53;;
70322;SDS011;57735;56.264;43.898;2022-07-17T07:50:29;5.88;;;2.25;;
70322;SDS011;57735;56.264;43.898;2022-07-17T07:53:02;7.43;;;1.88;;
70322;SDS011;57735;56.264;43.898;2022-07-17T07:55:35;7.00;;;2.25;;
70322;SDS011;57735;56.264;43.898;2022-07-17T07:58:07;4.03;;;2.20;;
70322;SDS011;57735;56.264;43.898;2022-07-17T08:00:43;4.45;;;2.20;;
70322;SDS011;57735;56.264;43.898;2022-07-17T08:03:15;4.80;;;2.10;;
70322;SDS011;57735;56.264;43.898;2022-07-17T08:05:48;6.25;;;2.05;;
70322;SDS011;57735;56.264;43.898;2022-07-17T08:08:22;7.30;;;1.80;;
70322;SDS011;57735;56.264;43.898;2022-07-17T08:10:53;6.20;;;1.98;;
70322;SDS011;57735;56.264;43.898;2022-07-17T08:13:27;3.60;;;2.08;;
70322;SDS011;57735;56.264;43.898;2022-07-17T08:16:00;4.80;;;2.10;;
70322;SDS011;57735;56.264;43.898;2022-07-17T08:18:31;6.32;;;1.85;;
70322;SDS011;57735;56.264;43.898;2022-07-17T08:21:02;3.47;;;1.77;;
70322;SDS011;57735;56.264;43.898;2022-07-17T08:23:35;5.27;;;1.90;;
70322;SDS011;57735;56.264;43.898;2022-07-17T08:26:06;10.32;;;2.13;;
70322;SDS011;57735;56.264;43.898;2022-07-17T08:28:37;3.50;;;1.77;;
70322;SDS011;57735;56.264;43.898;2022-07-17T08:31:08;4.22;;;2.03;;
70322;SDS011;57735;56.264;43.898;2022-07-17T08:33:40;6.28;;;1.85;;
70322;SDS011;57735;56.264;43.898;2022-07-17T08:36:10;5.00;;;2.17;;
70322;SDS011;57735;56.264;43.898;2022-07-17T08:38:41;1.58;;;1.35;;
70322;SDS011;57735;56.264;43.898;2022-07-17T08:41:15;9.45;;;2.10;;
70322;SDS011;57735;56.264;43.898;2022-07-17T08:43:52;7.35;;;2.22;;
70322;SDS011;57735;56.264;43.898;2022-07-17T08:46:24;4.05;;;1.77;;
70322;SDS011;57735;56.264;43.898;2022-07-17T08:49:00;3.55;;;1.70;;
70322;SDS011;57735;56.264;43.898;2022-07-17T08:51:33;2.55;;;1.60;;
70322;SDS011;57735;56.264;43.898;2022-07-17T08:54:07;5.18;;;1.90;;
70322;SDS011;57735;56.264;43.898;2022-07-17T08:56:40;3.90;;;1.70;;
70322;SDS011;57735;56.264;43.898;2022-07-17T08:59:14;9.50;;;1.58;;
70322;SDS011;57735;56.264;43.898;2022-07-17T09:01:47;2.42;;;1.40;;
70322;SDS011;57735;56.264;43.898;2022-07-17T09:04:20;2.17;;;1.38;;
70322;SDS011;57735;56.264;43.898;2022-07-17T09:07:02;2.92;;;1.63;;
70322;SDS011;57735;56.264;43.898;2022-07-17T09:09:40;1.83;;;1.48;;
70322;SDS011;57735;56.264;43.898;2022-07-17T09:12:28;3.42;;;1.77;;
70322;SDS011;57735;56.264;43.898;2022-07-17T09:15:00;3.55;;;1.70;;
70322;SDS011;57735;56.264;43.898;2022-07-17T09:17:49;1.73;;;1.33;;
70322;SDS011;57735;56.264;43.898;2022-07-17T09:20:23;2.65;;;1.80;;
70322;SDS011;57735;56.264;43.898;2022-07-17T09:23:01;6.15;;;1.92;;
70322;SDS011;57735;56.264;43.898;2022-07-17T09:25:40;11.05;;;2.00;;
70322;SDS011;57735;56.264;43.898;2022-07-17T09:28:13;4.28;;;1.92;;
70322;SDS011;57735;56.264;43.898;2022-07-17T09:30:48;8.23;;;2.55;;
70322;SDS011;57735;56.264;43.898;2022-07-17T09:33:26;3.38;;;1.65;;
70322;SDS011;57735;56.264;43.898;2022-07-17T09:36:05;2.72;;;1.40;;
70322;SDS011;57735;56.264;43.898;2022-07-17T09:38:40;4.07;;;1.70;;
70322;SDS011;57735;56.264;43.898;2022-07-17T09:41:16;8.18;;;1.92;;
70322;SDS011;57735;56.264;43.898;2022-07-17T09:44:08;6.07;;;1.42;;
70322;SDS011;57735;56.264;43.898;2022-07-17T09:46:38;3.28;;;1.55;;
70322;SDS011;57735;56.264;43.898;2022-07-17T09:49:11;4.43;;;2.22;;
70322;SDS011;57735;56.264;43.898;2022-07-17T09:51:43;8.95;;;1.80;;
70322;SDS011;57735;56.264;43.898;2022-07-17T09:54:16;6.90;;;1.80;;
70322;SDS011;57735;56.264;43.898;2022-07-17T09:56:51;6.35;;;1.65;;
70322;SDS011;57735;56.264;43.898;2022-07-17T09:59:28;5.20;;;1.70;;
70322;SDS011;57735;56.264;43.898;2022-07-17T10:02:07;3.15;;;1.88;;
70322;SDS011;57735;56.264;43.898;2022-07-17T10:04:41;5.63;;;1.65;;
70322;SDS011;57735;56.264;43.898;2022-07-17T10:07:12;8.13;;;1.65;;
70322;SDS011;57735;56.264;43.898;2022-07-17T10:09:43;4.72;;;1.70;;
70322;SDS011;57735;56.264;43.898;2022-07-17T10:12:14;3.83;;;1.25;;
70322;SDS011;57735;56.264;43.898;2022-07-17T10:14:50;2.92;;;1.38;;
70322;SDS011;57735;56.264;43.898;2022-07-17T10:19:54;4.18;;;1.42;;
70322;SDS011;57735;56.264;43.898;2022-07-17T10:22:26;4.78;;;1.60;;
70322;SDS011;57735;56.264;43.898;2022-07-17T10:25:14;3.17;;;1.30;;
70322;SDS011;57735;56.264;43.898;2022-07-17T10:27:53;3.95;;;1.42;;
70322;SDS011;57735;56.264;43.898;2022-07-17T10:30:26;6.25;;;1.48;;
70322;SDS011;57735;56.264;43.898;2022-07-17T10:33:05;2.83;;;1.42;;
70322;SDS011;57735;56.264;43.898;2022-07-17T10:35:46;3.72;;;1.50;;
70322;SDS011;57735;56.264;43.898;2022-07-17T10:38:18;3.63;;;1.48;;
70322;SDS011;57735;56.264;43.898;2022-07-17T10:41:00;5.00;;;1.73;;
70322;SDS011;57735;56.264;43.898;2022-07-17T10:43:44;5.68;;;2.50;;
70322;SDS011;57735;56.264;43.898;2022-07-17T10:46:17;5.70;;;2.72;;
70322;SDS011;57735;56.264;43.898;2022-07-17T10:48:50;5.90;;;2.80;;
70322;SDS011;57735;56.264;43.898;2022-07-17T10:51:24;6.43;;;2.50;;
70322;SDS011;57735;56.264;43.898;2022-07-17T10:53:59;7.68;;;2.60;;
70322;SDS011;57735;56.264;43.898;2022-07-17T10:56:30;7.40;;;2.17;;
70322;SDS011;57735;56.264;43.898;2022-07-17T10:59:02;5.53;;;2.05;;
70322;SDS011;57735;56.264;43.898;2022-07-17T11:01:33;3.45;;;1.80;;
70322;SDS011;57735;56.264;43.898;2022-07-17T11:04:04;6.30;;;2.17;;
70322;SDS011;57735;56.264;43.898;2022-07-17T11:06:38;5.18;;;2.10;;
70322;SDS011;57735;56.264;43.898;2022-07-17T11:09:12;3.53;;;1.80;;
70322;SDS011;57735;56.264;43.898;2022-07-17T11:11:43;5.50;;;1.67;;
70322;SDS011;57735;56.264;43.898;2022-07-17T11:14:23;3.50;;;1.83;;
70322;SDS011;57735;56.264;43.898;2022-07-17T11:16:58;5.63;;;2.05;;
70322;SDS011;57735;56.264;43.898;2022-07-17T11:19:31;2.72;;;1.70;;
70322;SDS011;57735;56.264;43.898;2022-07-17T11:22:14;6.80;;;1.92;;
70322;SDS011;57735;56.264;43.898;2022-07-17T11:24:46;2.95;;;2.10;;
70322;SDS011;57735;56.264;43.898;2022-07-17T11:29:54;4.13;;;2.20;;
70322;SDS011;57735;56.264;43.898;2022-07-17T11:32:33;7.90;;;1.97;;
70322;SDS011;57735;56.264;43.898;2022-07-17T11:35:13;2.85;;;2.00;;
70322;SDS011;57735;56.264;43.898;2022-07-17T11:37:51;6.13;;;1.85;;
70322;SDS011;57735;56.264;43.898;2022-07-17T11:40:23;2.92;;;1.80;;
70322;SDS011;57735;56.264;43.898;2022-07-17T11:43:00;4.57;;;1.70;;
70322;SDS011;57735;56.264;43.898;2022-07-17T11:45:32;2.45;;;1.85;;
70322;SDS011;57735;56.264;43.898;2022-07-17T11:48:03;3.22;;;1.90;;
70322;SDS011;57735;56.264;43.898;2022-07-17T11:50:34;3.97;;;1.90;;
70322;SDS011;57735;56.264;43.898;2022-07-17T11:53:05;4.93;;;1.67;;
70322;SDS011;57735;56.264;43.898;2022-07-17T11:55:39;4.82;;;2.15;;
70322;SDS011;57735;56.264;43.898;2022-07-17T11:58:11;2.30;;;1.60;;
70322;SDS011;57735;56.264;43.898;2022-07-17T12:00:42;4.95;;;1.90;;
70322;SDS011;57735;56.264;43.898;2022-07-17T12:03:13;3.85;;;2.10;;
70322;SDS011;57735;56.264;43.898;2022-07-17T12:05:44;5.32;;;1.80;;
70322;SDS011;57735;56.264;43.898;2022-07-17T12:08:18;6.18;;;1.80;;
70322;SDS011;57735;56.264;43.898;2022-07-17T12:11:03;4.85;;;1.90;;
70322;SDS011;57735;56.264;43.898;2022-07-17T12:13:40;2.65;;;1.70;;
70322;SDS011;57735;56.264;43.898;2022-07-17T12:16:26;7.07;;;2.05;;
70322;SDS011;57735;56.264;43.898;2022-07-17T12:24:37;8.30;;;2.13;;
70322;SDS011;57735;56.264;43.898;2022-07-17T12:27:13;6.80;;;1.98;;
70322;SDS011;57735;56.264;43.898;2022-07-17T12:29:45;6.65;;;1.90;;
70322;SDS011;57735;56.264;43.898;2022-07-17T12:32:16;6.25;;;1.90;;
70322;SDS011;57735;56.264;43.898;2022-07-17T12:34:48;5.10;;;2.00;;
70322;SDS011;57735;56.264;43.898;2022-07-17T12:37:20;4.85;;;2.13;;
70322;SDS011;57735;56.264;43.898;2022-07-17T12:39:52;3.30;;;1.70;;
70322;SDS011;57735;56.264;43.898;2022-07-17T12:42:23;4.32;;;2.30;;
70322;SDS011;57735;56.264;43.898;2022-07-17T12:44:53;2.42;;;1.90;;
70322;SDS011;57735;56.264;43.898;2022-07-17T12:47:27;7.50;;;2.10;;
70322;SDS011;57735;56.264;43.898;2022-07-17T12:49:58;4.40;;;1.77;;
70322;SDS011;57735;56.264;43.898;2022-07-17T12:52:31;5.00;;;2.00;;
70322;SDS011;57735;56.264;43.898;2022-07-17T12:55:02;3.85;;;1.88;;
70322;SDS011;57735;56.264;43.898;2022-07-17T13:00:10;5.50;;;1.67;;
70322;SDS011;57735;56.264;43.898;2022-07-17T13:02:42;3.90;;;1.77;;
70322;SDS011;57735;56.264;43.898;2022-07-17T13:05:12;3.00;;;1.60;;
70322;SDS011;57735;56.264;43.898;2022-07-17T13:07:53;3.88;;;2.00;;
70322;SDS011;57735;56.264;43.898;2022-07-17T13:10:29;8.43;;;2.20;;
70322;SDS011;57735;56.264;43.898;2022-07-17T13:13:02;5.70;;;1.70;;
70322;SDS011;57735;56.264;43.898;2022-07-17T13:15:34;3.60;;;1.90;;
70322;SDS011;57735;56.264;43.898;2022-07-17T13:18:05;4.28;;;1.90;;
70322;SDS011;57735;56.264;43.898;2022-07-17T13:20:39;6.13;;;1.93;;
70322;SDS011;57735;56.264;43.898;2022-07-17T13:23:10;4.70;;;1.88;;
70322;SDS011;57735;56.264;43.898;2022-07-17T13:25:41;5.93;;;2.47;;
70322;SDS011;57735;56.264;43.898;2022-07-17T13:28:21;5.53;;;2.20;;
70322;SDS011;57735;56.264;43.898;2022-07-17T13:30:51;4.97;;;2.95;;
70322;SDS011;57735;56.264;43.898;2022-07-17T13:33:23;8.07;;;1.70;;
70322;SDS011;57735;56.264;43.898;2022-07-17T13:36:07;7.20;;;1.90;;
70322;SDS011;57735;56.264;43.898;2022-07-17T13:38:38;5.80;;;2.10;;
70322;SDS011;57735;56.264;43.898;2022-07-17T13:41:09;2.65;;;1.80;;
70322;SDS011;57735;56.264;43.898;2022-07-17T13:43:39;4.97;;;2.63;;
70322;SDS011;57735;56.264;43.898;2022-07-17T13:46:13;2.75;;;1.50;;
70322;SDS011;57735;56.264;43.898;2022-07-17T13:48:43;9.60;;;1.90;;
70322;SDS011;57735;56.264;43.898;2022-07-17T13:51:14;3.88;;;1.80;;
70322;SDS011;57735;56.264;43.898;2022-07-17T13:53:45;4.43;;;1.65;;
70322;SDS011;57735;56.264;43.898;2022-07-17T13:56:19;6.68;;;1.85;;
70322;SDS011;57735;56.264;43.898;2022-07-17T13:58:52;5.00;;;1.80;;
70322;SDS011;57735;56.264;43.898;2022-07-17T14:01:28;5.43;;;2.08;;
70322;SDS011;57735;56.264;43.898;2022-07-17T14:04:00;5.38;;;1.70;;
70322;SDS011;57735;56.264;43.898;2022-07-17T14:06:32;2.50;;;1.65;;
70322;SDS011;57735;56.264;43.898;2022-07-17T14:09:03;4.25;;;2.05;;
70322;SDS011;57735;56.264;43.898;2022-07-17T14:11:34;5.22;;;1.88;;
70322;SDS011;57735;56.264;43.898;2022-07-17T14:14:06;7.00;;;2.03;;
70322;SDS011;57735;56.264;43.898;2022-07-17T14:16:37;12.60;;;2.40;;
70322;SDS011;57735;56.264;43.898;2022-07-17T14:19:17;9.07;;;2.70;;
70322;SDS011;57735;56.264;43.898;2022-07-17T14:21:51;5.03;;;1.60;;
70322;SDS011;57735;56.264;43.898;2022-07-17T14:24:24;5.45;;;1.90;;
70322;SDS011;57735;56.264;43.898;2022-07-17T14:27:04;8.82;;;2.78;;
70322;SDS011;57735;56.264;43.898;2022-07-17T14:29:35;7.28;;;2.05;;
70322;SDS011;57735;56.264;43.898;2022-07-17T14:32:06;6.00;;;1.95;;
70322;SDS011;57735;56.264;43.898;2022-07-17T14:34:39;4.95;;;1.65;;
70322;SDS011;57735;56.264;43.898;2022-07-17T14:37:10;5.60;;;1.90;;
70322;SDS011;57735;56.264;43.898;2022-07-17T14:39:40;11.70;;;1.70;;
70322;SDS011;57735;56.264;43.898;2022-07-17T14:42:14;5.88;;;2.00;;
70322;SDS011;57735;56.264;43.898;2022-07-17T14:44:48;6.00;;;2.05;;
70322;SDS011;57735;56.264;43.898;2022-07-17T14:47:19;7.72;;;2.20;;
70322;SDS011;57735;56.264;43.898;2022-07-17T14:49:50;9.73;;;2.20;;
70322;SDS011;57735;56.264;43.898;2022-07-17T14:52:24;7.80;;;2.28;;
70322;SDS011;57735;56.264;43.898;2022-07-17T14:54:55;8.55;;;2.00;;
70322;SDS011;57735;56.264;43.898;2022-07-17T14:57:25;3.75;;;1.80;;
70322;SDS011;57735;56.264;43.898;2022-07-17T14:59:58;4.38;;;1.95;;
70322;SDS011;57735;56.264;43.898;2022-07-17T15:02:29;4.13;;;1.98;;
70322;SDS011;57735;56.264;43.898;2022-07-17T15:05:00;6.72;;;1.95;;
70322;SDS011;57735;56.264;43.898;2022-07-17T15:07:31;3.03;;;1.92;;
70322;SDS011;57735;56.264;43.898;2022-07-17T15:10:02;2.40;;;2.05;;
70322;SDS011;57735;56.264;43.898;2022-07-17T15:12:34;5.70;;;2.55;;
70322;SDS011;57735;56.264;43.898;2022-07-17T15:15:05;6.60;;;2.30;;